createdAt,value
2019-03-31T00:01:55.087Z,12.21
2019-03-31T00:04:28.131Z,11.70
2019-03-31T00:07:00.806Z,11.25
2019-03-31T00:09:33.308Z,10.82
2019-03-31T00:12:06.111Z,10.38
2019-03-31T00:14:38.571Z,9.98
2019-03-31T00:17:11.036Z,9.65
2019-03-31T00:19:43.626Z,9.29
2019-03-31T00:22:16.101Z,8.96
2019-03-31T00:24:49.030Z,8.63
2019-03-31T00:27:21.495Z,8.35
2019-03-31T00:29:54.171Z,9.34
2019-03-31T00:32:26.616Z,11.29
2019-03-31T00:34:59.147Z,12.99
2019-03-31T00:37:31.761Z,13.23
2019-03-31T00:40:05.727Z,12.55
2019-03-31T00:42:38.334Z,11.96
2019-03-31T00:45:10.796Z,11.41
2019-03-31T00:47:43.422Z,11.00
2019-03-31T00:50:15.876Z,10.56
2019-03-31T00:52:48.375Z,10.14
2019-03-31T00:55:20.991Z,9.76
2019-03-31T00:57:53.386Z,9.39
2019-03-31T01:00:43.951Z,9.04
2019-03-31T01:03:19.194Z,8.70
2019-03-31T01:05:51.738Z,8.36
2019-03-31T01:08:25.210Z,8.08
2019-03-31T01:10:57.896Z,9.24
2019-03-31T01:13:30.341Z,11.18
2019-03-31T01:16:03.126Z,12.80
2019-03-31T01:18:36.665Z,13.06
2019-03-31T01:21:09.119Z,12.42
2019-03-31T01:23:41.786Z,11.83
2019-03-31T01:26:15.920Z,11.34
2019-03-31T01:28:48.519Z,10.91
2019-03-31T01:31:20.976Z,10.48
2019-03-31T01:33:53.445Z,10.08
2019-03-31T01:36:25.706Z,9.70
2019-03-31T01:38:58.057Z,9.34
2019-03-31T01:41:30.506Z,8.98
2019-03-31T01:44:02.931Z,8.67
2019-03-31T01:46:35.316Z,8.38
2019-03-31T01:49:08.151Z,8.04
2019-03-31T01:51:40.471Z,9.07
2019-03-31T01:54:12.786Z,11.07
2019-03-31T01:56:45.317Z,12.76
2019-03-31T01:59:17.821Z,13.02
2019-03-31T02:02:03.322Z,12.34
2019-03-31T02:04:25.051Z,11.73
2019-03-31T02:06:57.545Z,11.22
2019-03-31T02:09:30.302Z,10.75
2019-03-31T02:12:02.883Z,10.35
2019-03-31T02:14:36.191Z,9.96
2019-03-31T02:17:08.696Z,9.59
2019-03-31T02:19:41.071Z,9.22
2019-03-31T02:22:14.201Z,8.91
2019-03-31T02:24:47.561Z,8.56
2019-03-31T02:27:20.442Z,8.27
2019-03-31T02:29:53.041Z,9.31
2019-03-31T02:32:25.477Z,11.41
2019-03-31T02:34:59.208Z,13.18
2019-03-31T02:37:32.692Z,13.37
2019-03-31T02:40:07.282Z,12.72
2019-03-31T02:42:39.768Z,12.08
2019-03-31T02:45:12.359Z,11.59
2019-03-31T02:47:45.117Z,11.15
2019-03-31T02:50:45.678Z,10.75
2019-03-31T02:53:18.820Z,10.29
2019-03-31T02:55:51.212Z,9.93
2019-03-31T02:58:23.942Z,9.62
2019-03-31T03:00:56.732Z,9.34
2019-03-31T03:03:30.350Z,9.04
2019-03-31T03:06:02.975Z,8.80
2019-03-31T03:08:35.307Z,9.87
2019-03-31T03:11:07.926Z,11.93
2019-03-31T03:13:40.265Z,13.72
2019-03-31T03:16:17.931Z,14.00
2019-03-31T03:18:50.477Z,13.35
2019-03-31T03:21:24.587Z,12.80
2019-03-31T03:23:57.858Z,12.32
2019-03-31T03:26:30.754Z,11.90
2019-03-31T03:29:03.015Z,11.55
2019-03-31T03:31:36.537Z,11.15
2019-03-31T03:34:08.903Z,10.84
2019-03-31T03:36:43.623Z,10.49
2019-03-31T03:39:15.508Z,10.20
2019-03-31T03:41:48.667Z,9.94
2019-03-31T03:44:21.229Z,9.70
2019-03-31T03:46:53.807Z,9.45
2019-03-31T03:49:26.322Z,10.52
2019-03-31T03:51:58.661Z,12.53
2019-03-31T03:54:31.011Z,14.24
2019-03-31T03:57:03.703Z,14.49
2019-03-31T03:59:36.086Z,13.85
2019-03-31T04:02:08.627Z,13.30
2019-03-31T04:04:41.037Z,12.84
2019-03-31T04:07:13.508Z,12.45
2019-03-31T04:09:46.181Z,12.05
2019-03-31T04:12:18.595Z,11.69
2019-03-31T04:14:50.896Z,11.37
2019-03-31T04:17:23.131Z,11.04
2019-03-31T04:19:55.781Z,10.73
2019-03-31T04:22:27.956Z,10.45
2019-03-31T04:25:00.720Z,10.20
2019-03-31T04:27:33.261Z,9.97
2019-03-31T04:30:06.136Z,9.73
2019-03-31T04:32:39.198Z,10.80
2019-03-31T04:35:11.755Z,12.75
2019-03-31T04:37:44.414Z,14.47
2019-03-31T04:40:17.027Z,14.72
2019-03-31T04:42:49.450Z,14.11
2019-03-31T04:45:22.812Z,13.59
2019-03-31T04:47:55.248Z,13.11
2019-03-31T04:50:28.237Z,12.70
2019-03-31T04:53:02.191Z,12.35
2019-03-31T04:55:34.676Z,12.00
2019-03-31T04:58:07.389Z,11.68
2019-03-31T05:00:39.866Z,11.37
2019-03-31T05:03:13.194Z,11.10
2019-03-31T05:05:45.718Z,10.84
2019-03-31T05:08:18.336Z,10.60
2019-03-31T05:10:50.981Z,10.41
2019-03-31T05:13:23.286Z,10.18
2019-03-31T05:15:55.844Z,11.26
2019-03-31T05:18:28.557Z,13.32
2019-03-31T05:21:01.187Z,15.04
2019-03-31T05:23:33.681Z,15.27
2019-03-31T05:26:06.421Z,14.68
2019-03-31T05:28:38.781Z,14.17
2019-03-31T05:31:11.190Z,13.70
2019-03-31T05:33:43.771Z,13.34
2019-03-31T05:36:16.012Z,13.00
2019-03-31T05:38:48.531Z,12.69
2019-03-31T05:41:20.993Z,12.42
2019-03-31T05:44:05.135Z,12.17
2019-03-31T05:46:27.376Z,11.94
2019-03-31T05:48:59.688Z,11.69
2019-03-31T05:51:32.206Z,11.52
2019-03-31T05:54:04.731Z,11.32
2019-03-31T05:56:36.986Z,11.14
2019-03-31T05:59:09.539Z,11.00
2019-03-31T06:01:42.026Z,12.18
2019-03-31T06:04:14.682Z,14.28
2019-03-31T06:06:47.151Z,16.13
2019-03-31T06:09:19.766Z,16.35
2019-03-31T06:11:53.496Z,15.80
2019-03-31T06:14:26.406Z,15.31
2019-03-31T06:16:58.950Z,14.96
2019-03-31T06:19:31.506Z,14.59
2019-03-31T06:22:04.045Z,14.27
2019-03-31T06:24:36.566Z,14.00
2019-03-31T06:27:09.171Z,13.73
2019-03-31T06:29:41.475Z,13.48
2019-03-31T06:32:14.396Z,13.24
2019-03-31T06:34:47.998Z,13.04
2019-03-31T06:37:20.757Z,12.83
2019-03-31T06:39:53.257Z,12.63
2019-03-31T06:42:28.032Z,12.49
2019-03-31T06:45:00.911Z,12.32
2019-03-31T06:47:33.476Z,12.23
2019-03-31T06:50:08.073Z,12.21
2019-03-31T06:52:40.737Z,12.23
2019-03-31T06:55:13.179Z,12.27
2019-03-31T06:57:45.686Z,12.34
2019-03-31T07:00:18.369Z,12.44
2019-03-31T07:02:50.891Z,12.55
2019-03-31T07:05:23.451Z,12.62
2019-03-31T07:07:56.262Z,12.60
2019-03-31T07:10:28.673Z,12.59
2019-03-31T07:13:01.147Z,12.60
2019-03-31T07:15:33.961Z,12.60
2019-03-31T07:18:06.456Z,12.62
2019-03-31T07:20:39.241Z,12.63
2019-03-31T07:23:11.971Z,12.66
2019-03-31T07:25:44.546Z,12.66
2019-03-31T07:28:16.996Z,12.69
2019-03-31T07:30:49.457Z,12.67
2019-03-31T07:33:22.194Z,12.70
2019-03-31T07:35:54.921Z,12.75
2019-03-31T07:38:38.823Z,12.77
2019-03-31T07:41:12.511Z,12.76
2019-03-31T07:43:37.046Z,12.77
2019-03-31T07:46:09.606Z,12.82
2019-03-31T07:48:41.956Z,12.80
2019-03-31T07:51:14.439Z,12.77
2019-03-31T07:53:47.196Z,12.79
2019-03-31T07:56:19.731Z,12.79
2019-03-31T07:58:52.141Z,12.79
2019-03-31T08:01:28.556Z,12.77
2019-03-31T08:04:01.461Z,12.79
2019-03-31T08:06:34.260Z,12.79
2019-03-31T08:09:08.272Z,12.79
2019-03-31T08:11:40.737Z,12.80
2019-03-31T08:14:13.343Z,12.84
2019-03-31T08:16:45.648Z,12.97
2019-03-31T08:19:20.811Z,12.97
2019-03-31T08:21:52.581Z,13.07
2019-03-31T08:24:25.031Z,13.11
2019-03-31T08:26:57.708Z,13.25
2019-03-31T08:29:30.062Z,13.37
2019-03-31T08:32:02.837Z,13.51
2019-03-31T08:34:35.606Z,13.58
2019-03-31T08:37:07.976Z,13.66
2019-03-31T08:39:40.583Z,13.75
2019-03-31T08:42:13.121Z,13.88
2019-03-31T08:44:45.586Z,13.99
2019-03-31T08:47:18.146Z,14.06
2019-03-31T08:49:50.451Z,14.20
2019-03-31T08:52:22.922Z,14.32
2019-03-31T08:54:55.171Z,14.42
2019-03-31T08:57:27.815Z,14.34
2019-03-31T09:00:00.359Z,14.34
2019-03-31T09:02:34.606Z,14.28
2019-03-31T09:05:09.287Z,14.25
2019-03-31T09:07:42.220Z,14.23
2019-03-31T09:10:14.591Z,14.24
2019-03-31T09:12:48.673Z,14.16
2019-03-31T09:15:21.391Z,14.07
2019-03-31T09:17:54.468Z,13.93
2019-03-31T09:20:27.186Z,13.86
2019-03-31T09:22:59.846Z,13.85
2019-03-31T09:25:32.531Z,13.79
2019-03-31T09:28:05.171Z,13.68
2019-03-31T09:30:37.601Z,13.62
2019-03-31T09:33:10.207Z,13.61
2019-03-31T09:35:42.871Z,13.62
2019-03-31T09:38:15.477Z,13.66
2019-03-31T09:40:48.131Z,13.68
2019-03-31T09:43:20.781Z,13.72
2019-03-31T09:45:53.240Z,13.69
2019-03-31T09:48:26.149Z,13.68
2019-03-31T09:50:58.821Z,13.76
2019-03-31T09:53:31.411Z,13.83
2019-03-31T09:56:03.926Z,13.96
2019-03-31T09:58:36.741Z,14.00
2019-03-31T10:01:09.206Z,14.00
2019-03-31T10:03:41.814Z,14.04
2019-03-31T10:06:14.346Z,14.01
2019-03-31T10:08:46.933Z,13.93
2019-03-31T10:11:19.301Z,13.85
2019-03-31T10:13:51.877Z,13.85
2019-03-31T10:16:24.506Z,13.92
2019-03-31T10:18:56.986Z,13.99
2019-03-31T10:21:29.462Z,14.06
2019-03-31T10:24:01.961Z,14.00
2019-03-31T10:26:34.770Z,13.90
2019-03-31T10:29:07.307Z,13.82
2019-03-31T10:31:39.912Z,13.76
2019-03-31T10:34:12.377Z,13.70
2019-03-31T10:36:45.911Z,13.63
2019-03-31T10:39:18.856Z,13.56
2019-03-31T10:41:51.346Z,13.51
2019-03-31T10:44:24.327Z,13.46
2019-03-31T10:46:58.445Z,13.48
2019-03-31T10:49:31.205Z,13.49
2019-03-31T10:52:03.906Z,13.55
2019-03-31T10:54:36.266Z,13.55
2019-03-31T10:57:08.726Z,13.56
2019-03-31T10:59:42.548Z,13.61
2019-03-31T11:02:15.186Z,13.63
2019-03-31T11:04:47.421Z,13.63
2019-03-31T11:07:19.892Z,13.65
2019-03-31T11:09:52.827Z,13.66
2019-03-31T11:12:25.696Z,13.69
2019-03-31T11:14:58.171Z,13.78
2019-03-31T11:17:30.656Z,13.88
2019-03-31T11:20:03.446Z,14.00
2019-03-31T11:22:37.391Z,14.06
2019-03-31T11:25:20.313Z,14.10
2019-03-31T11:27:44.265Z,14.16
2019-03-31T11:30:16.625Z,14.18
2019-03-31T11:32:50.400Z,14.14
2019-03-31T11:35:22.946Z,14.14
2019-03-31T11:37:55.385Z,14.18
2019-03-31T11:40:29.230Z,14.23
2019-03-31T11:43:02.728Z,14.23
2019-03-31T11:45:35.465Z,14.17
2019-03-31T11:48:07.771Z,14.11
2019-03-31T11:50:40.407Z,14.10
2019-03-31T11:53:14.450Z,14.13
2019-03-31T11:55:47.032Z,14.11
2019-03-31T11:58:19.414Z,14.13
2019-03-31T12:00:53.857Z,14.14
2019-03-31T12:03:30.744Z,14.18
2019-03-31T12:06:02.451Z,14.16
2019-03-31T12:08:35.080Z,14.08
2019-03-31T12:11:07.641Z,14.08
2019-03-31T12:13:40.152Z,14.03
2019-03-31T12:16:12.756Z,14.00
2019-03-31T12:18:45.256Z,13.96
2019-03-31T12:21:18.541Z,13.93
2019-03-31T12:23:51.345Z,13.94
2019-03-31T12:26:23.747Z,13.93
2019-03-31T12:28:56.504Z,13.89
2019-03-31T12:31:29.556Z,13.83
2019-03-31T12:34:02.095Z,13.90
2019-03-31T12:36:35.280Z,13.96
2019-03-31T12:39:09.506Z,13.92
2019-03-31T12:41:42.036Z,13.85
2019-03-31T12:44:14.641Z,13.80
2019-03-31T12:46:47.210Z,13.72
2019-03-31T12:49:20.200Z,13.61
2019-03-31T12:51:55.111Z,13.49
2019-03-31T12:54:27.384Z,13.41
2019-03-31T12:56:59.851Z,13.31
2019-03-31T12:59:32.615Z,13.23
2019-03-31T13:02:04.915Z,13.17
2019-03-31T13:04:37.265Z,13.11
2019-03-31T13:07:09.515Z,13.07
2019-03-31T13:09:41.980Z,13.00
2019-03-31T13:12:14.590Z,12.93
2019-03-31T13:14:47.246Z,12.83
2019-03-31T13:17:19.757Z,12.72
2019-03-31T13:19:52.230Z,12.69
2019-03-31T13:22:24.967Z,12.66
2019-03-31T13:24:57.800Z,12.67
2019-03-31T13:27:30.047Z,12.66
2019-03-31T13:30:02.565Z,12.65
2019-03-31T13:32:35.306Z,12.62
2019-03-31T13:35:08.738Z,12.60
2019-03-31T13:37:41.502Z,12.59
2019-03-31T13:40:14.145Z,12.58
2019-03-31T13:42:47.961Z,12.58
2019-03-31T13:45:20.881Z,12.56
2019-03-31T13:47:53.036Z,12.58
2019-03-31T13:50:25.731Z,12.51
2019-03-31T13:52:58.383Z,12.49
2019-03-31T13:55:31.016Z,12.45
2019-03-31T13:58:04.962Z,12.39
2019-03-31T14:00:41.851Z,12.38
2019-03-31T14:03:14.417Z,12.31
2019-03-31T14:05:46.976Z,12.27
2019-03-31T14:08:25.978Z,12.23
2019-03-31T14:10:53.676Z,12.23
2019-03-31T14:13:26.461Z,12.24
2019-03-31T14:15:59.101Z,12.21
2019-03-31T14:18:31.427Z,12.20
2019-03-31T14:21:04.146Z,12.20
2019-03-31T14:23:36.607Z,12.21
2019-03-31T14:26:08.867Z,12.21
2019-03-31T14:28:41.392Z,12.24
2019-03-31T14:31:13.836Z,12.23
2019-03-31T14:33:46.662Z,12.24
2019-03-31T14:36:18.931Z,12.27
2019-03-31T14:38:51.481Z,12.29
2019-03-31T14:41:24.236Z,12.31
2019-03-31T14:43:57.228Z,12.29
2019-03-31T14:46:29.887Z,12.31
2019-03-31T14:49:02.754Z,12.31
2019-03-31T14:51:35.031Z,12.32
2019-03-31T14:54:07.270Z,12.31
2019-03-31T14:56:39.746Z,12.35
2019-03-31T14:59:12.218Z,12.37
2019-03-31T15:01:44.894Z,12.39
2019-03-31T15:04:17.437Z,12.39
2019-03-31T15:06:49.766Z,12.47
2019-03-31T15:09:22.442Z,12.47
2019-03-31T15:11:54.812Z,12.48
2019-03-31T15:14:27.567Z,12.45
2019-03-31T15:17:00.142Z,12.41
2019-03-31T15:19:33.603Z,12.38
2019-03-31T15:22:06.122Z,12.37
2019-03-31T15:24:38.422Z,12.32
2019-03-31T15:27:11.152Z,12.27
2019-03-31T15:29:44.452Z,12.23
2019-03-31T15:32:16.662Z,12.18
2019-03-31T15:34:49.256Z,12.14
2019-03-31T15:37:21.902Z,12.11
2019-03-31T15:39:54.701Z,12.08
2019-03-31T15:42:27.264Z,12.07
2019-03-31T15:45:01.016Z,12.01
2019-03-31T15:47:33.527Z,12.00
2019-03-31T15:50:07.761Z,11.94
2019-03-31T15:52:40.263Z,11.90
2019-03-31T15:55:13.448Z,11.84
2019-03-31T15:57:46.011Z,11.77
2019-03-31T16:00:18.436Z,11.69
2019-03-31T16:02:50.836Z,11.63
2019-03-31T16:05:23.487Z,11.58
2019-03-31T16:07:56.026Z,11.52
2019-03-31T16:10:28.627Z,11.46
2019-03-31T16:13:01.026Z,11.42
2019-03-31T16:15:33.774Z,11.35
2019-03-31T16:18:06.226Z,11.34
2019-03-31T16:20:38.771Z,11.26
2019-03-31T16:23:11.355Z,11.24
2019-03-31T16:25:45.571Z,11.18
2019-03-31T16:28:18.171Z,11.12
2019-03-31T16:30:50.746Z,11.11
2019-03-31T16:33:23.411Z,11.06
2019-03-31T16:35:55.926Z,11.01
2019-03-31T16:38:28.776Z,10.94
2019-03-31T16:41:01.306Z,10.90
2019-03-31T16:43:34.880Z,10.84
2019-03-31T16:46:07.181Z,10.79
2019-03-31T16:48:39.906Z,10.70
2019-03-31T16:51:12.361Z,10.65
2019-03-31T16:53:45.200Z,10.58
2019-03-31T16:56:17.707Z,10.52
2019-03-31T16:58:50.336Z,10.48
2019-03-31T17:01:23.086Z,10.39
2019-03-31T17:03:55.412Z,10.32
2019-03-31T17:06:27.572Z,10.24
2019-03-31T17:08:59.996Z,10.14
2019-03-31T17:11:32.446Z,10.07
2019-03-31T17:14:05.121Z,10.00
2019-03-31T17:16:37.320Z,9.90
2019-03-31T17:19:09.721Z,9.82
2019-03-31T17:21:41.988Z,9.73
2019-03-31T17:24:14.306Z,9.67
2019-03-31T17:26:46.881Z,9.56
2019-03-31T17:29:19.146Z,9.49
2019-03-31T17:31:51.451Z,9.41
2019-03-31T17:34:23.794Z,9.32
2019-03-31T17:36:56.391Z,9.24
2019-03-31T17:39:29.051Z,9.14
2019-03-31T17:42:01.573Z,9.10
2019-03-31T17:44:34.147Z,9.04
2019-03-31T17:47:06.689Z,8.94
2019-03-31T17:49:39.476Z,8.84
2019-03-31T17:52:12.311Z,8.79
2019-03-31T17:54:44.616Z,8.70
2019-03-31T17:57:17.347Z,8.64
2019-03-31T17:59:49.806Z,8.56
2019-03-31T18:02:22.191Z,8.49
2019-03-31T18:04:54.432Z,8.43
2019-03-31T18:07:27.121Z,8.38
2019-03-31T18:09:59.627Z,8.31
2019-03-31T18:12:32.691Z,8.22
2019-03-31T18:15:05.432Z,8.15
2019-03-31T18:17:37.851Z,8.11
2019-03-31T18:20:10.501Z,8.00
2019-03-31T18:22:43.111Z,7.93
2019-03-31T18:25:15.592Z,7.87
2019-03-31T18:27:48.141Z,7.79
2019-03-31T18:30:20.716Z,7.73
2019-03-31T18:32:53.481Z,7.66
2019-03-31T18:35:25.972Z,7.57
2019-03-31T18:37:58.506Z,7.53
2019-03-31T18:40:35.302Z,7.47
2019-03-31T18:43:05.067Z,7.42
2019-03-31T18:45:37.532Z,7.35
2019-03-31T18:48:10.396Z,7.31
2019-03-31T18:50:43.061Z,7.24
2019-03-31T18:53:17.441Z,7.19
2019-03-31T18:55:54.551Z,7.14
2019-03-31T18:58:28.556Z,7.08
2019-03-31T19:01:03.004Z,7.03
2019-03-31T19:03:47.326Z,6.96
2019-03-31T19:06:24.429Z,6.87
2019-03-31T19:08:58.511Z,6.80
2019-03-31T19:11:38.151Z,6.73
2019-03-31T19:14:15.806Z,6.68
2019-03-31T19:16:50.127Z,6.57
2019-03-31T19:19:29.161Z,6.52
2019-03-31T19:22:06.755Z,6.45
2019-03-31T19:24:46.028Z,6.41
2019-03-31T19:27:19.946Z,6.31
2019-03-31T19:30:04.695Z,6.25
2019-03-31T19:32:39.903Z,6.20
2019-03-31T19:35:14.146Z,6.11
2019-03-31T19:37:48.283Z,6.03
2019-03-31T19:40:24.901Z,5.97
2019-03-31T19:42:57.301Z,5.90
2019-03-31T19:45:46.197Z,5.86
2019-03-31T19:48:36.666Z,5.76
2019-03-31T19:51:18.489Z,5.72
2019-03-31T19:53:55.951Z,5.63
2019-03-31T19:56:28.371Z,5.56
2019-03-31T19:59:17.686Z,5.50
2019-03-31T20:01:51.796Z,5.46
2019-03-31T20:04:42.106Z,5.39
2019-03-31T20:07:17.211Z,5.34
2019-03-31T20:09:54.016Z,5.29
2019-03-31T20:12:45.471Z,5.29
2019-03-31T20:15:33.355Z,5.25
2019-03-31T20:18:07.617Z,5.31
2019-03-31T20:20:44.769Z,5.27
2019-03-31T20:23:30.761Z,5.27
2019-03-31T20:26:21.021Z,5.28
2019-03-31T20:28:57.901Z,5.27
2019-03-31T20:31:35.516Z,5.32
2019-03-31T20:34:15.781Z,5.27
2019-03-31T20:36:53.306Z,5.35
2019-03-31T20:39:56.117Z,5.25
2019-03-31T20:42:21.253Z,5.31
2019-03-31T20:44:54.136Z,5.36
2019-03-31T20:47:27.063Z,5.32
2019-03-31T20:49:59.616Z,5.35
2019-03-31T20:52:32.201Z,5.35
2019-03-31T20:55:15.581Z,5.27
2019-03-31T20:57:39.511Z,5.34
2019-03-31T21:00:12.021Z,5.32
2019-03-31T21:02:44.847Z,5.45
2019-03-31T21:05:17.506Z,5.27
2019-03-31T21:07:49.961Z,5.50
2019-03-31T21:10:22.356Z,5.43
2019-03-31T21:12:54.742Z,5.24
2019-03-31T21:15:27.421Z,5.38
2019-03-31T21:17:59.841Z,5.24
2019-03-31T21:20:32.606Z,5.43
2019-03-31T21:23:04.906Z,5.27
2019-03-31T21:25:37.446Z,5.50
2019-03-31T21:28:09.846Z,5.35
2019-03-31T21:30:42.366Z,5.39
2019-03-31T21:33:14.831Z,5.49
2019-03-31T21:35:48.678Z,5.25
2019-03-31T21:38:21.361Z,5.48
2019-03-31T21:40:53.731Z,5.35
2019-03-31T21:43:26.276Z,5.46
2019-03-31T21:45:59.126Z,5.50
2019-03-31T21:48:31.546Z,5.27
2019-03-31T21:51:04.176Z,5.50
2019-03-31T21:53:36.503Z,5.34
2019-03-31T21:56:09.776Z,5.52
2019-03-31T21:58:42.147Z,5.50
2019-03-31T22:01:14.751Z,5.22
2019-03-31T22:03:47.676Z,5.50
2019-03-31T22:06:20.333Z,5.32
2019-03-31T22:08:53.276Z,5.49
2019-03-31T22:11:26.051Z,5.46
2019-03-31T22:13:58.416Z,5.21
2019-03-31T22:16:30.777Z,5.50
2019-03-31T22:19:03.260Z,5.29
2019-03-31T22:21:35.846Z,5.55
2019-03-31T22:24:08.606Z,5.46
2019-03-31T22:26:41.071Z,5.29
2019-03-31T22:29:13.451Z,5.56
2019-03-31T22:31:46.415Z,5.28
2019-03-31T22:34:18.821Z,5.52
2019-03-31T22:36:51.376Z,5.38
2019-03-31T22:39:23.821Z,5.43
2019-03-31T22:41:56.316Z,5.49
2019-03-31T22:44:28.791Z,5.22
2019-03-31T22:47:01.335Z,5.49
2019-03-31T22:49:33.556Z,5.24
2019-03-31T22:52:05.812Z,5.50
2019-03-31T22:54:38.011Z,5.29
2019-03-31T22:57:10.487Z,5.58
2019-03-31T22:59:43.181Z,5.46
2019-03-31T23:02:15.815Z,5.35
2019-03-31T23:04:48.526Z,5.49
2019-03-31T23:07:20.946Z,5.21
2019-03-31T23:09:53.386Z,5.48
2019-03-31T23:12:25.841Z,5.24
2019-03-31T23:14:58.307Z,5.45
2019-03-31T23:17:30.571Z,5.24
2019-03-31T23:20:03.042Z,5.53
2019-03-31T23:22:35.321Z,5.22
2019-03-31T23:25:08.096Z,5.55
2019-03-31T23:27:40.396Z,5.29
2019-03-31T23:30:13.226Z,5.56
2019-03-31T23:32:45.751Z,5.41
2019-03-31T23:35:18.311Z,5.39
2019-03-31T23:37:50.921Z,5.56
2019-03-31T23:40:23.376Z,5.24
2019-03-31T23:42:55.968Z,5.53
2019-03-31T23:45:28.071Z,5.29
2019-03-31T23:48:00.322Z,5.58
2019-03-31T23:50:32.566Z,5.42
2019-03-31T23:53:05.011Z,5.43
2019-03-31T23:55:37.569Z,5.53
2019-03-31T23:58:09.987Z,5.21
